createdAt,value
2022-09-11T00:01:00.359Z,28.97
2022-09-11T00:03:28.228Z,45.83
2022-09-11T00:05:54.966Z,65.40
2022-09-11T00:08:21.732Z,76.73
2022-09-11T00:10:48.825Z,35.67
2022-09-11T00:13:21.530Z,38.60
2022-09-11T00:15:51.954Z,66.50
2022-09-11T00:18:21.841Z,30.40
2022-09-11T00:20:56.643Z,43.97
2022-09-11T00:23:25.990Z,39.40
2022-09-11T00:25:52.984Z,39.90
2022-09-11T00:28:24.490Z,37.23
2022-09-11T00:31:06.040Z,29.70
2022-09-11T00:33:33.504Z,30.93
2022-09-11T00:36:03.971Z,32.07
2022-09-11T00:38:33.292Z,29.70
2022-09-11T00:41:01.309Z,29.00
2022-09-11T00:43:29.183Z,32.00
2022-09-11T00:45:59.863Z,26.57
2022-09-11T00:48:29.891Z,28.17
2022-09-11T00:50:56.842Z,24.00
2022-09-11T00:53:25.689Z,22.87
2022-09-11T00:55:58.016Z,24.83
2022-09-11T00:58:28.568Z,26.47
2022-09-11T01:00:56.468Z,25.30
2022-09-11T01:03:25.462Z,25.77
2022-09-11T01:05:52.482Z,20.20
2022-09-11T01:08:20.929Z,26.77
2022-09-11T01:11:05.906Z,23.13
2022-09-11T01:13:50.907Z,29.83
2022-09-11T01:16:53.316Z,28.77
2022-09-11T01:19:56.989Z,26.43
2022-09-11T01:22:41.452Z,24.90
2022-09-11T01:25:31.553Z,18.47
2022-09-11T01:28:00.910Z,16.80
2022-09-11T01:30:37.443Z,18.80
2022-09-11T01:33:28.177Z,16.93
2022-09-11T01:36:11.158Z,24.90
2022-09-11T01:38:50.136Z,23.37
2022-09-11T01:41:29.775Z,21.50
2022-09-11T01:44:03.814Z,32.47
2022-09-11T01:46:34.829Z,30.47
2022-09-11T01:49:15.517Z,21.13
2022-09-11T01:51:42.585Z,19.23
2022-09-11T01:54:17.074Z,25.70
2022-09-11T01:56:48.431Z,19.83
2022-09-11T01:59:16.601Z,28.00
2022-09-11T02:01:45.507Z,43.37
2022-09-11T02:04:24.644Z,38.80
2022-09-11T02:06:56.589Z,40.93
2022-09-11T02:09:25.993Z,32.03
2022-09-11T02:11:55.029Z,25.40
2022-09-11T02:14:29.865Z,189.70
2022-09-11T02:17:38.234Z,89.00
2022-09-11T02:20:05.545Z,64.90
2022-09-11T02:22:32.054Z,78.83
2022-09-11T02:24:58.521Z,58.10
2022-09-11T02:27:27.369Z,30.03
2022-09-11T02:29:55.006Z,22.73
2022-09-11T02:32:22.374Z,37.33
2022-09-11T02:34:50.352Z,31.97
2022-09-11T02:37:31.422Z,21.10
2022-09-11T02:40:04.069Z,46.00
2022-09-11T02:43:09.532Z,35.93
2022-09-11T02:45:44.552Z,32.60
2022-09-11T02:48:37.992Z,81.73
2022-09-11T02:51:26.363Z,69.23
2022-09-11T02:53:55.882Z,181.87
2022-09-11T02:56:39.842Z,59.83
2022-09-11T02:59:29.012Z,194.23
2022-09-11T03:01:59.589Z,285.10
2022-09-11T03:04:26.413Z,237.00
2022-09-11T03:06:53.400Z,314.67
2022-09-11T03:09:20.401Z,134.10
2022-09-11T03:11:46.888Z,160.50
2022-09-11T03:14:14.262Z,266.23
2022-09-11T03:16:41.627Z,384.93
2022-09-11T03:19:08.185Z,254.60
2022-09-11T03:21:35.142Z,129.63
2022-09-11T03:24:02.005Z,56.10
2022-09-11T03:26:29.507Z,20.20
2022-09-11T03:28:56.166Z,272.30
2022-09-11T03:31:22.676Z,166.30
2022-09-11T03:33:49.146Z,260.77
2022-09-11T03:36:15.712Z,84.33
2022-09-11T03:38:42.149Z,310.87
2022-09-11T03:41:09.608Z,234.53
2022-09-11T03:43:36.044Z,164.70
2022-09-11T03:46:03.239Z,130.10
2022-09-11T03:48:29.858Z,139.60
2022-09-11T03:50:56.384Z,137.80
2022-09-11T03:53:22.870Z,142.87
2022-09-11T03:55:52.252Z,155.97
2022-09-11T03:58:19.462Z,163.03
2022-09-11T04:00:46.594Z,63.60
2022-09-11T04:03:15.475Z,85.07
2022-09-11T04:05:44.116Z,195.67
2022-09-11T04:08:13.724Z,143.10
2022-09-11T04:10:40.782Z,123.37
2022-09-11T04:13:07.250Z,181.50
2022-09-11T04:15:33.878Z,150.53
2022-09-11T04:18:04.901Z,97.57
2022-09-11T04:20:32.205Z,140.33
2022-09-11T04:22:58.982Z,79.93
2022-09-11T04:25:25.824Z,104.03
2022-09-11T04:27:52.265Z,164.73
2022-09-11T04:30:19.865Z,151.17
2022-09-11T04:32:46.320Z,119.90
2022-09-11T04:35:12.804Z,82.60
2022-09-11T04:37:40.651Z,57.83
2022-09-11T04:40:08.003Z,78.10
2022-09-11T04:42:34.531Z,52.20
2022-09-11T04:45:00.998Z,81.10
2022-09-11T04:47:28.437Z,47.27
2022-09-11T04:49:55.161Z,71.17
2022-09-11T04:52:21.583Z,146.10
2022-09-11T04:54:48.486Z,30.93
2022-09-11T04:57:14.958Z,152.37
2022-09-11T04:59:41.464Z,83.00
2022-09-11T05:02:08.018Z,114.30
2022-09-11T05:04:34.536Z,104.63
2022-09-11T05:07:01.069Z,158.07
2022-09-11T05:09:27.847Z,134.47
2022-09-11T05:11:54.546Z,93.60
2022-09-11T05:14:21.008Z,69.03
2022-09-11T05:16:47.607Z,116.37
2022-09-11T05:19:14.145Z,50.93
2022-09-11T05:21:41.532Z,52.87
2022-09-11T05:24:08.189Z,73.47
2022-09-11T05:26:36.934Z,87.93
2022-09-11T05:29:09.263Z,69.40
2022-09-11T05:31:37.259Z,34.90
2022-09-11T05:34:04.992Z,117.30
2022-09-11T05:36:31.967Z,61.80
2022-09-11T05:38:58.683Z,96.87
2022-09-11T05:41:25.362Z,57.10
2022-09-11T05:43:51.825Z,88.07
2022-09-11T05:46:19.594Z,83.93
2022-09-11T05:48:46.327Z,138.27
2022-09-11T05:51:19.256Z,101.77
2022-09-11T05:53:46.294Z,72.67
2022-09-11T05:56:21.388Z,53.17
2022-09-11T05:58:48.744Z,86.23
2022-09-11T06:01:17.734Z,143.93
2022-09-11T06:03:44.634Z,79.60
2022-09-11T06:06:12.609Z,65.43
2022-09-11T06:08:42.299Z,110.37
2022-09-11T06:11:08.889Z,91.70
2022-09-11T06:13:39.033Z,84.87
2022-09-11T06:16:09.340Z,78.53
2022-09-11T06:18:35.792Z,31.53
2022-09-11T06:21:07.770Z,48.17
2022-09-11T06:23:35.376Z,64.40
2022-09-11T06:26:06.022Z,47.73
2022-09-11T06:28:32.540Z,78.83
2022-09-11T06:30:59.031Z,84.87
2022-09-11T06:33:25.496Z,59.03
2022-09-11T06:36:02.900Z,80.33
2022-09-11T06:38:30.118Z,56.40
2022-09-11T06:40:56.778Z,61.00
2022-09-11T06:43:23.498Z,42.47
2022-09-11T06:45:50.045Z,50.00
2022-09-11T06:48:17.297Z,56.97
2022-09-11T06:50:43.834Z,34.20
2022-09-11T06:53:11.662Z,52.90
2022-09-11T06:55:41.430Z,48.20
2022-09-11T06:58:08.572Z,25.83
2022-09-11T07:00:36.178Z,47.53
2022-09-11T07:03:04.006Z,45.20
2022-09-11T07:05:31.021Z,49.67
2022-09-11T07:07:57.867Z,26.30
2022-09-11T07:10:24.783Z,29.77
2022-09-11T07:12:52.929Z,21.53
2022-09-11T07:15:19.412Z,24.40
2022-09-11T07:17:45.849Z,22.43
2022-09-11T07:20:12.370Z,27.40
2022-09-11T07:22:39.093Z,27.17
2022-09-11T07:25:07.691Z,20.83
2022-09-11T07:27:34.367Z,19.60
2022-09-11T07:30:00.798Z,17.83
2022-09-11T07:32:27.258Z,13.77
2022-09-11T07:34:53.795Z,15.03
2022-09-11T07:37:20.272Z,13.03
2022-09-11T07:39:47.215Z,12.77
2022-09-11T07:42:13.673Z,13.47
2022-09-11T07:44:40.174Z,15.80
2022-09-11T07:47:06.672Z,14.70
2022-09-11T07:49:33.155Z,14.13
2022-09-11T07:51:59.825Z,15.33
2022-09-11T07:54:29.100Z,13.87
2022-09-11T07:56:56.172Z,11.60
2022-09-11T07:59:22.988Z,12.20
2022-09-11T08:01:50.258Z,12.40
2022-09-11T08:04:16.967Z,12.20
2022-09-11T08:06:43.694Z,12.40
2022-09-11T08:09:13.122Z,11.47
2022-09-11T08:11:45.882Z,10.87
2022-09-11T08:14:13.837Z,10.07
2022-09-11T08:16:40.741Z,11.17
2022-09-11T08:19:08.319Z,10.33
2022-09-11T08:21:35.085Z,10.80
2022-09-11T08:24:01.986Z,10.53
2022-09-11T08:26:30.344Z,10.47
2022-09-11T08:28:58.272Z,10.53
2022-09-11T08:31:26.943Z,11.20
2022-09-11T08:33:54.610Z,10.67
2022-09-11T08:36:21.360Z,10.67
2022-09-11T08:38:47.904Z,10.50
2022-09-11T08:41:36.074Z,10.17
2022-09-11T08:44:14.217Z,11.07
2022-09-11T08:46:43.898Z,9.40
2022-09-11T08:49:10.289Z,10.53
2022-09-11T08:51:37.397Z,9.40
2022-09-11T08:54:04.095Z,10.30
2022-09-11T08:56:31.432Z,10.50
2022-09-11T08:59:32.943Z,10.17
2022-09-11T09:02:20.633Z,10.20
2022-09-11T09:05:20.225Z,9.77
2022-09-11T09:08:11.497Z,10.27
2022-09-11T09:10:53.839Z,9.07
2022-09-11T09:13:55.661Z,8.40
2022-09-11T09:16:40.195Z,7.87
2022-09-11T09:19:19.390Z,7.30
2022-09-11T09:22:06.274Z,6.90
2022-09-11T09:24:54.998Z,6.40
2022-09-11T09:27:34.893Z,5.83
2022-09-11T09:30:06.085Z,5.20
2022-09-11T09:32:37.898Z,4.70
2022-09-11T09:35:13.189Z,5.80
2022-09-11T09:37:39.738Z,4.33
2022-09-11T09:40:09.343Z,4.57
2022-09-11T09:43:27.058Z,4.80
2022-09-11T09:46:01.034Z,5.20
2022-09-11T09:48:29.333Z,5.40
2022-09-11T09:50:56.438Z,5.37
2022-09-11T09:53:46.194Z,6.67
2022-09-11T09:56:16.357Z,6.80
2022-09-11T09:58:57.349Z,5.37
2022-09-11T10:01:47.755Z,4.63
2022-09-11T10:04:16.145Z,4.37
2022-09-11T10:06:46.869Z,4.03
2022-09-11T10:09:29.513Z,3.97
2022-09-11T10:12:01.888Z,5.20
2022-09-11T10:14:51.019Z,5.53
2022-09-11T10:17:31.315Z,5.03
2022-09-11T10:20:18.551Z,7.30
2022-09-11T10:22:45.864Z,5.30
2022-09-11T10:25:14.511Z,5.67
2022-09-11T10:27:56.361Z,4.63
2022-09-11T10:30:33.992Z,4.23
2022-09-11T10:33:03.886Z,2.30
2022-09-11T10:35:31.705Z,3.13
2022-09-11T10:38:17.809Z,2.90
2022-09-11T10:41:15.284Z,4.77
2022-09-11T10:43:41.752Z,2.53
2022-09-11T10:46:40.962Z,1.70
2022-09-11T10:49:23.723Z,2.00
2022-09-11T10:52:00.902Z,1.67
2022-09-11T10:55:06.416Z,1.87
2022-09-11T10:57:57.574Z,2.13
2022-09-11T11:00:31.427Z,2.07
2022-09-11T11:03:05.335Z,3.23
2022-09-11T11:05:50.641Z,2.70
2022-09-11T11:08:51.288Z,1.77
2022-09-11T11:11:40.303Z,1.67
2022-09-11T11:14:32.299Z,1.50
2022-09-11T11:17:05.554Z,2.63
2022-09-11T11:19:53.757Z,1.93
2022-09-11T11:22:58.399Z,2.53
2022-09-11T11:25:37.584Z,1.43
2022-09-11T11:28:16.043Z,1.27
2022-09-11T11:30:49.145Z,1.70
2022-09-11T11:33:25.642Z,1.40
2022-09-11T11:36:10.922Z,1.43
2022-09-11T11:38:46.384Z,1.60
2022-09-11T11:41:19.505Z,1.40
2022-09-11T11:43:48.252Z,4.13
2022-09-11T11:46:38.926Z,1.53
2022-09-11T11:49:19.463Z,1.80
2022-09-11T11:52:19.258Z,1.50
2022-09-11T11:55:13.181Z,2.00
2022-09-11T11:57:42.348Z,1.80
2022-09-11T12:00:15.347Z,1.50
2022-09-11T12:03:01.183Z,1.90
2022-09-11T12:05:32.983Z,1.63
2022-09-11T12:08:14.478Z,1.33
2022-09-11T12:10:46.279Z,3.27
2022-09-11T12:13:18.114Z,2.07
2022-09-11T12:16:31.948Z,1.90
2022-09-11T12:19:09.967Z,1.50
2022-09-11T12:22:23.403Z,2.30
2022-09-11T12:25:07.786Z,2.73
2022-09-11T12:28:27.196Z,1.40
2022-09-11T12:31:15.105Z,2.57
2022-09-11T12:33:42.079Z,2.47
2022-09-11T12:36:13.850Z,1.90
2022-09-11T12:38:59.000Z,1.43
2022-09-11T12:41:34.285Z,1.40
2022-09-11T12:44:03.359Z,1.87
2022-09-11T12:46:30.268Z,2.23
2022-09-11T12:49:21.170Z,1.60
2022-09-11T12:51:56.153Z,1.60
2022-09-11T12:54:27.959Z,2.17
2022-09-11T12:57:09.381Z,1.43
2022-09-11T12:59:42.906Z,1.37
2022-09-11T13:02:26.940Z,2.40
2022-09-11T13:04:55.035Z,1.40
2022-09-11T13:07:32.735Z,1.20
2022-09-11T13:10:08.372Z,1.50
2022-09-11T13:12:35.399Z,2.97
2022-09-11T13:15:03.752Z,2.13
2022-09-11T13:17:39.591Z,1.50
2022-09-11T13:20:18.021Z,1.93
2022-09-11T13:22:56.080Z,1.20
2022-09-11T13:25:29.197Z,1.90
2022-09-11T13:28:03.042Z,2.47
2022-09-11T13:30:30.300Z,2.33
2022-09-11T13:33:11.111Z,1.60
2022-09-11T13:35:42.435Z,1.77
2022-09-11T13:38:29.304Z,1.57
2022-09-11T13:41:04.173Z,1.40
2022-09-11T13:43:48.044Z,1.60
2022-09-11T13:46:16.881Z,1.87
2022-09-11T13:48:48.221Z,1.40
2022-09-11T13:51:19.856Z,1.87
2022-09-11T13:53:58.104Z,3.00
2022-09-11T13:57:07.326Z,1.37
2022-09-11T13:59:38.646Z,2.40
2022-09-11T14:02:44.262Z,1.60
2022-09-11T14:05:21.414Z,1.70
2022-09-11T14:08:07.877Z,4.30
2022-09-11T14:10:44.765Z,1.70
2022-09-11T14:13:32.457Z,1.60
2022-09-11T14:16:09.087Z,2.07
2022-09-11T14:18:46.553Z,1.53
2022-09-11T14:21:21.086Z,2.40
2022-09-11T14:23:53.313Z,1.50
2022-09-11T14:26:25.372Z,2.23
2022-09-11T14:28:56.807Z,1.40
2022-09-11T14:31:29.167Z,2.90
2022-09-11T14:34:22.476Z,1.30
2022-09-11T14:37:06.077Z,1.47
2022-09-11T14:39:42.516Z,1.30
2022-09-11T14:42:16.970Z,1.47
2022-09-11T14:44:53.059Z,1.80
2022-09-11T14:47:26.704Z,2.40
2022-09-11T14:49:55.195Z,1.77
2022-09-11T14:52:28.118Z,1.30
2022-09-11T14:54:57.289Z,1.77
2022-09-11T14:57:28.119Z,1.60
2022-09-11T14:59:55.219Z,1.63
2022-09-11T15:02:25.029Z,2.13
2022-09-11T15:04:53.705Z,1.70
2022-09-11T15:07:23.481Z,1.90
2022-09-11T15:09:52.123Z,2.30
2022-09-11T15:12:21.615Z,1.50
2022-09-11T15:14:58.849Z,2.47
2022-09-11T15:17:26.374Z,2.20
2022-09-11T15:19:53.816Z,1.40
2022-09-11T15:22:22.313Z,1.40
2022-09-11T15:24:50.280Z,1.63
2022-09-11T15:27:19.922Z,1.60
2022-09-11T15:29:46.922Z,1.73
2022-09-11T15:32:14.895Z,1.40
2022-09-11T15:34:44.382Z,1.40
2022-09-11T15:37:12.321Z,1.40
2022-09-11T15:39:39.641Z,1.40
2022-09-11T15:42:08.136Z,1.33
2022-09-11T15:44:36.176Z,1.30
2022-09-11T15:47:04.709Z,1.40
2022-09-11T15:49:34.398Z,1.20
2022-09-11T15:52:03.043Z,1.77
2022-09-11T15:54:29.990Z,1.37
2022-09-11T15:56:57.396Z,1.40
2022-09-11T15:59:24.631Z,1.97
2022-09-11T16:01:52.002Z,1.80
2022-09-11T16:04:22.356Z,1.63
2022-09-11T16:06:52.109Z,2.07
2022-09-11T16:09:22.275Z,2.37
2022-09-11T16:11:51.561Z,1.53
2022-09-11T16:14:22.411Z,1.30
2022-09-11T16:16:50.359Z,1.53
2022-09-11T16:19:21.285Z,1.50
2022-09-11T16:21:49.281Z,2.30
2022-09-11T16:24:18.181Z,1.50
2022-09-11T16:26:46.608Z,1.90
2022-09-11T16:29:21.239Z,1.63
2022-09-11T16:31:50.063Z,1.83
2022-09-11T16:34:18.667Z,1.63
2022-09-11T16:36:46.602Z,1.83
2022-09-11T16:39:19.576Z,1.50
2022-09-11T16:41:47.087Z,3.07
2022-09-11T16:44:16.543Z,2.37
2022-09-11T16:46:45.536Z,1.60
2022-09-11T16:49:16.285Z,2.80
2022-09-11T16:51:44.792Z,1.50
2022-09-11T16:54:12.096Z,1.73
2022-09-11T16:56:43.946Z,2.37
2022-09-11T16:59:13.866Z,1.83
2022-09-11T17:01:40.911Z,2.67
2022-09-11T17:04:07.798Z,1.93
2022-09-11T17:06:34.436Z,2.60
2022-09-11T17:09:02.295Z,2.03
2022-09-11T17:11:31.223Z,3.47
2022-09-11T17:13:59.779Z,2.77
2022-09-11T17:16:28.217Z,1.93
2022-09-11T17:18:56.584Z,2.90
2022-09-11T17:21:24.256Z,2.63
2022-09-11T17:23:56.844Z,2.00
2022-09-11T17:26:25.105Z,1.77
2022-09-11T17:28:54.483Z,2.87
2022-09-11T17:31:24.179Z,3.37
2022-09-11T17:33:51.869Z,2.30
2022-09-11T17:36:21.370Z,1.70
2022-09-11T17:38:49.317Z,1.97
2022-09-11T17:41:16.483Z,2.00
2022-09-11T17:43:42.972Z,2.37
2022-09-11T17:46:15.116Z,3.07
2022-09-11T17:48:42.528Z,2.40
2022-09-11T17:51:20.113Z,2.07
2022-09-11T17:53:52.280Z,2.60
2022-09-11T17:56:21.169Z,3.10
2022-09-11T17:58:52.276Z,3.53
2022-09-11T18:01:19.373Z,4.23
2022-09-11T18:03:50.874Z,3.37
2022-09-11T18:06:31.232Z,3.40
2022-09-11T18:09:01.680Z,3.47
2022-09-11T18:11:29.393Z,3.50
2022-09-11T18:13:55.823Z,2.90
2022-09-11T18:16:22.781Z,3.50
2022-09-11T18:18:49.254Z,3.53
2022-09-11T18:21:15.974Z,3.83
2022-09-11T18:23:45.056Z,3.90
2022-09-11T18:26:26.511Z,3.50
2022-09-11T18:29:02.081Z,4.07
2022-09-11T18:31:31.317Z,4.07
2022-09-11T18:34:00.331Z,3.30
2022-09-11T18:36:28.982Z,3.83
2022-09-11T18:38:57.582Z,3.67
2022-09-11T18:41:24.257Z,3.80
2022-09-11T18:44:00.020Z,3.47
2022-09-11T18:46:27.348Z,3.53
2022-09-11T18:48:55.829Z,4.23
2022-09-11T18:51:22.493Z,5.07
2022-09-11T18:53:52.006Z,4.27
2022-09-11T18:56:19.789Z,3.63
2022-09-11T18:58:47.823Z,3.50
2022-09-11T19:01:15.719Z,4.37
2022-09-11T19:03:43.665Z,3.57
2022-09-11T19:06:15.334Z,4.13
2022-09-11T19:08:44.635Z,5.83
2022-09-11T19:11:16.546Z,4.87
2022-09-11T19:13:44.205Z,5.73
2022-09-11T19:16:11.688Z,9.10
2022-09-11T19:18:42.167Z,17.53
2022-09-11T19:21:12.081Z,22.90
2022-09-11T19:23:43.698Z,25.77
2022-09-11T19:26:22.054Z,24.33
2022-09-11T19:28:50.056Z,25.87
2022-09-11T19:31:21.138Z,22.53
2022-09-11T19:33:48.031Z,20.90
2022-09-11T19:36:17.967Z,21.10
2022-09-11T19:38:46.494Z,18.97
2022-09-11T19:41:15.510Z,18.57
2022-09-11T19:43:42.989Z,17.70
2022-09-11T19:46:10.864Z,14.33
2022-09-11T19:48:40.353Z,13.57
2022-09-11T19:51:23.425Z,13.37
2022-09-11T19:53:51.592Z,11.67
2022-09-11T19:56:19.066Z,10.37
2022-09-11T19:58:45.759Z,7.27
2022-09-11T20:01:17.556Z,9.07
2022-09-11T20:03:45.837Z,7.60
2022-09-11T20:06:14.141Z,9.10
2022-09-11T20:08:45.503Z,6.53
2022-09-11T20:11:15.804Z,5.80
2022-09-11T20:13:42.398Z,7.43
2022-09-11T20:16:15.133Z,7.43
2022-09-11T20:18:42.391Z,7.33
2022-09-11T20:21:11.613Z,10.83
2022-09-11T20:23:39.015Z,10.57
2022-09-11T20:26:17.172Z,13.37
2022-09-11T20:28:45.039Z,10.00
2022-09-11T20:31:18.773Z,12.83
2022-09-11T20:33:46.231Z,10.17
2022-09-11T20:36:13.193Z,10.80
2022-09-11T20:38:39.669Z,12.33
2022-09-11T20:41:07.876Z,13.33
2022-09-11T20:43:34.429Z,11.23
2022-09-11T20:46:01.254Z,12.40
2022-09-11T20:48:28.262Z,10.73
2022-09-11T20:50:54.845Z,8.70
2022-09-11T20:53:24.260Z,10.97
2022-09-11T20:55:50.726Z,8.90
2022-09-11T20:58:17.168Z,8.50
2022-09-11T21:00:46.785Z,11.13
2022-09-11T21:03:13.681Z,9.83
2022-09-11T21:05:40.202Z,9.93
2022-09-11T21:08:06.660Z,8.60
2022-09-11T21:10:36.751Z,7.13
2022-09-11T21:13:03.277Z,6.33
2022-09-11T21:15:29.871Z,8.27
2022-09-11T21:17:56.694Z,5.67
2022-09-11T21:20:23.348Z,5.70
2022-09-11T21:22:50.135Z,5.90
2022-09-11T21:25:16.712Z,6.87
2022-09-11T21:27:43.174Z,7.80
2022-09-11T21:30:10.034Z,6.33
2022-09-11T21:32:36.517Z,7.57
2022-09-11T21:35:02.964Z,7.27
2022-09-11T21:37:29.398Z,6.33
2022-09-11T21:39:55.861Z,6.40
2022-09-11T21:42:22.384Z,6.27
2022-09-11T21:44:48.836Z,5.23
2022-09-11T21:47:15.322Z,8.30
2022-09-11T21:49:41.776Z,5.20
2022-09-11T21:52:08.604Z,5.07
2022-09-11T21:54:35.049Z,5.27
2022-09-11T21:57:01.532Z,5.50
2022-09-11T21:59:27.985Z,5.03
2022-09-11T22:01:54.508Z,5.03
2022-09-11T22:04:21.200Z,6.30
2022-09-11T22:06:47.735Z,4.27
2022-09-11T22:09:20.265Z,4.67
2022-09-11T22:11:47.857Z,5.03
2022-09-11T22:14:19.016Z,4.83
2022-09-11T22:16:46.114Z,5.03
2022-09-11T22:19:13.660Z,6.13
2022-09-11T22:21:40.623Z,6.10
2022-09-11T22:24:07.169Z,5.00
2022-09-11T22:26:33.693Z,5.20
2022-09-11T22:29:00.171Z,4.53
2022-09-11T22:31:28.885Z,5.33
2022-09-11T22:33:55.610Z,4.97
2022-09-11T22:36:27.598Z,4.80
2022-09-11T22:38:54.553Z,4.47
2022-09-11T22:41:21.496Z,4.50
2022-09-11T22:43:49.992Z,4.70
2022-09-11T22:46:19.673Z,4.67
2022-09-11T22:48:46.290Z,6.87
2022-09-11T22:51:13.244Z,4.93
2022-09-11T22:53:40.113Z,4.23
2022-09-11T22:56:07.086Z,5.97
2022-09-11T22:58:33.567Z,4.33
2022-09-11T23:01:03.892Z,4.77
2022-09-11T23:03:30.809Z,5.00
2022-09-11T23:06:17.561Z,4.83
2022-09-11T23:08:45.758Z,5.23
2022-09-11T23:11:15.305Z,5.07
2022-09-11T23:13:42.640Z,4.90
2022-09-11T23:16:15.327Z,4.57
2022-09-11T23:18:42.293Z,5.10
2022-09-11T23:21:09.257Z,4.80
2022-09-11T23:23:40.908Z,4.93
2022-09-11T23:26:08.833Z,4.33
2022-09-11T23:28:35.760Z,5.00
2022-09-11T23:31:02.896Z,5.03
2022-09-11T23:33:30.333Z,4.27
2022-09-11T23:35:56.810Z,4.57
2022-09-11T23:38:23.321Z,5.27
2022-09-11T23:40:49.863Z,4.17
2022-09-11T23:43:16.320Z,4.27
2022-09-11T23:45:42.751Z,4.47
2022-09-11T23:48:09.389Z,4.50
2022-09-11T23:50:35.838Z,4.93
2022-09-11T23:53:02.521Z,4.13
2022-09-11T23:55:29.174Z,4.57
2022-09-11T23:57:55.721Z,4.53
